sensor_id;sensor_type;location;lat;lon;timestamp;P1;durP1;ratioP1;P2;durP2;ratioP2
1613;SDS011;800;48.824;9.346;2023-09-30T00:00:56;9.03;;;3.63;;
1613;SDS011;800;48.824;9.346;2023-09-30T00:03:22;6.23;;;3.70;;
1613;SDS011;800;48.824;9.346;2023-09-30T00:05:47;5.50;;;3.27;;
1613;SDS011;800;48.824;9.346;2023-09-30T00:08:13;4.00;;;2.90;;
1613;SDS011;800;48.824;9.346;2023-09-30T00:10:38;5.93;;;3.20;;
1613;SDS011;800;48.824;9.346;2023-09-30T00:13:04;6.20;;;3.77;;
1613;SDS011;800;48.824;9.346;2023-09-30T00:15:31;5.30;;;3.07;;
1613;SDS011;800;48.824;9.346;2023-09-30T00:17:58;8.03;;;3.63;;
1613;SDS011;800;48.824;9.346;2023-09-30T00:20:24;6.93;;;3.13;;
1613;SDS011;800;48.824;9.346;2023-09-30T00:22:49;5.23;;;3.20;;
1613;SDS011;800;48.824;9.346;2023-09-30T00:25:15;3.77;;;2.37;;
1613;SDS011;800;48.824;9.346;2023-09-30T00:27:40;5.63;;;3.30;;
1613;SDS011;800;48.824;9.346;2023-09-30T00:30:06;4.50;;;2.90;;
1613;SDS011;800;48.824;9.346;2023-09-30T00:32:32;6.33;;;3.20;;
1613;SDS011;800;48.824;9.346;2023-09-30T00:34:58;5.60;;;2.63;;
1613;SDS011;800;48.824;9.346;2023-09-30T00:37:26;4.50;;;2.70;;
1613;SDS011;800;48.824;9.346;2023-09-30T00:39:52;4.87;;;2.90;;
1613;SDS011;800;48.824;9.346;2023-09-30T00:42:18;5.83;;;2.70;;
1613;SDS011;800;48.824;9.346;2023-09-30T00:44:45;4.00;;;2.10;;
1613;SDS011;800;48.824;9.346;2023-09-30T00:47:11;3.53;;;2.50;;
1613;SDS011;800;48.824;9.346;2023-09-30T00:49:40;4.00;;;2.03;;
1613;SDS011;800;48.824;9.346;2023-09-30T00:52:08;2.37;;;2.13;;
1613;SDS011;800;48.824;9.346;2023-09-30T00:54:35;3.33;;;2.20;;
1613;SDS011;800;48.824;9.346;2023-09-30T00:57:02;4.07;;;2.40;;
1613;SDS011;800;48.824;9.346;2023-09-30T00:59:28;3.60;;;2.27;;
1613;SDS011;800;48.824;9.346;2023-09-30T01:01:57;4.57;;;2.30;;
1613;SDS011;800;48.824;9.346;2023-09-30T01:04:24;2.63;;;2.20;;
1613;SDS011;800;48.824;9.346;2023-09-30T01:06:52;4.30;;;2.20;;
1613;SDS011;800;48.824;9.346;2023-09-30T01:09:17;4.10;;;1.90;;
1613;SDS011;800;48.824;9.346;2023-09-30T01:11:44;3.03;;;2.10;;
1613;SDS011;800;48.824;9.346;2023-09-30T01:14:31;2.97;;;1.87;;
1613;SDS011;800;48.824;9.346;2023-09-30T01:17:03;3.80;;;2.23;;
1613;SDS011;800;48.824;9.346;2023-09-30T01:19:29;2.47;;;1.50;;
1613;SDS011;800;48.824;9.346;2023-09-30T01:21:55;2.87;;;1.70;;
1613;SDS011;800;48.824;9.346;2023-09-30T01:24:28;2.63;;;2.07;;
1613;SDS011;800;48.824;9.346;2023-09-30T01:26:54;3.70;;;2.30;;
1613;SDS011;800;48.824;9.346;2023-09-30T01:29:20;2.10;;;1.90;;
1613;SDS011;800;48.824;9.346;2023-09-30T01:31:47;4.20;;;2.20;;
1613;SDS011;800;48.824;9.346;2023-09-30T01:34:13;3.20;;;2.10;;
1613;SDS011;800;48.824;9.346;2023-09-30T01:36:40;2.33;;;1.90;;
1613;SDS011;800;48.824;9.346;2023-09-30T01:39:06;2.47;;;2.27;;
1613;SDS011;800;48.824;9.346;2023-09-30T01:41:32;3.63;;;2.07;;
1613;SDS011;800;48.824;9.346;2023-09-30T01:43:58;3.17;;;2.43;;
1613;SDS011;800;48.824;9.346;2023-09-30T01:46:23;3.60;;;2.00;;
1613;SDS011;800;48.824;9.346;2023-09-30T01:48:49;3.87;;;1.90;;
1613;SDS011;800;48.824;9.346;2023-09-30T01:51:14;2.33;;;2.13;;
1613;SDS011;800;48.824;9.346;2023-09-30T01:53:40;3.50;;;2.57;;
1613;SDS011;800;48.824;9.346;2023-09-30T01:56:05;4.23;;;2.60;;
1613;SDS011;800;48.824;9.346;2023-09-30T01:58:31;3.23;;;2.70;;
1613;SDS011;800;48.824;9.346;2023-09-30T02:01:03;4.10;;;2.37;;
1613;SDS011;800;48.824;9.346;2023-09-30T02:03:29;2.90;;;2.00;;
1613;SDS011;800;48.824;9.346;2023-09-30T02:05:55;2.77;;;2.00;;
1613;SDS011;800;48.824;9.346;2023-09-30T02:08:21;6.07;;;2.23;;
1613;SDS011;800;48.824;9.346;2023-09-30T02:10:47;8.10;;;2.43;;
1613;SDS011;800;48.824;9.346;2023-09-30T02:13:13;3.60;;;2.40;;
1613;SDS011;800;48.824;9.346;2023-09-30T02:15:42;4.33;;;2.60;;
1613;SDS011;800;48.824;9.346;2023-09-30T02:18:08;3.13;;;2.30;;
1613;SDS011;800;48.824;9.346;2023-09-30T02:20:34;2.93;;;2.50;;
1613;SDS011;800;48.824;9.346;2023-09-30T02:23:01;4.40;;;2.40;;
1613;SDS011;800;48.824;9.346;2023-09-30T02:25:27;3.60;;;2.80;;
1613;SDS011;800;48.824;9.346;2023-09-30T02:27:53;2.40;;;2.20;;
1613;SDS011;800;48.824;9.346;2023-09-30T02:30:19;3.80;;;2.73;;
1613;SDS011;800;48.824;9.346;2023-09-30T02:32:46;3.17;;;2.60;;
1613;SDS011;800;48.824;9.346;2023-09-30T02:35:11;4.53;;;2.67;;
1613;SDS011;800;48.824;9.346;2023-09-30T02:37:38;4.27;;;2.60;;
1613;SDS011;800;48.824;9.346;2023-09-30T02:40:06;4.80;;;2.87;;
1613;SDS011;800;48.824;9.346;2023-09-30T02:42:38;3.67;;;2.60;;
1613;SDS011;800;48.824;9.346;2023-09-30T02:45:05;3.03;;;2.70;;
1613;SDS011;800;48.824;9.346;2023-09-30T02:47:33;5.23;;;2.80;;
1613;SDS011;800;48.824;9.346;2023-09-30T02:49:59;6.23;;;2.93;;
1613;SDS011;800;48.824;9.346;2023-09-30T02:52:25;3.77;;;2.77;;
1613;SDS011;800;48.824;9.346;2023-09-30T02:54:51;4.37;;;3.30;;
1613;SDS011;800;48.824;9.346;2023-09-30T02:57:16;3.90;;;2.33;;
1613;SDS011;800;48.824;9.346;2023-09-30T02:59:43;4.63;;;3.07;;
1613;SDS011;800;48.824;9.346;2023-09-30T03:02:09;9.50;;;3.20;;
1613;SDS011;800;48.824;9.346;2023-09-30T03:04:36;3.40;;;3.10;;
1613;SDS011;800;48.824;9.346;2023-09-30T03:07:02;4.67;;;3.20;;
1613;SDS011;800;48.824;9.346;2023-09-30T03:09:27;3.10;;;2.70;;
1613;SDS011;800;48.824;9.346;2023-09-30T03:11:53;3.73;;;3.23;;
1613;SDS011;800;48.824;9.346;2023-09-30T03:14:21;4.13;;;3.03;;
1613;SDS011;800;48.824;9.346;2023-09-30T03:16:47;3.90;;;2.90;;
1613;SDS011;800;48.824;9.346;2023-09-30T03:19:13;4.53;;;2.83;;
1613;SDS011;800;48.824;9.346;2023-09-30T03:21:41;4.60;;;3.33;;
1613;SDS011;800;48.824;9.346;2023-09-30T03:24:07;4.40;;;3.47;;
1613;SDS011;800;48.824;9.346;2023-09-30T03:26:33;4.00;;;3.60;;
1613;SDS011;800;48.824;9.346;2023-09-30T03:29:00;5.17;;;3.27;;
1613;SDS011;800;48.824;9.346;2023-09-30T03:31:26;3.97;;;2.87;;
1613;SDS011;800;48.824;9.346;2023-09-30T03:33:52;3.60;;;2.80;;
1613;SDS011;800;48.824;9.346;2023-09-30T03:36:21;4.63;;;2.70;;
1613;SDS011;800;48.824;9.346;2023-09-30T03:38:49;3.67;;;3.10;;
1613;SDS011;800;48.824;9.346;2023-09-30T03:41:15;4.03;;;2.83;;
1613;SDS011;800;48.824;9.346;2023-09-30T03:43:41;4.23;;;2.73;;
1613;SDS011;800;48.824;9.346;2023-09-30T03:46:07;6.40;;;3.03;;
1613;SDS011;800;48.824;9.346;2023-09-30T03:48:33;3.37;;;3.07;;
1613;SDS011;800;48.824;9.346;2023-09-30T03:51:10;3.17;;;2.60;;
1613;SDS011;800;48.824;9.346;2023-09-30T03:53:41;3.33;;;3.03;;
1613;SDS011;800;48.824;9.346;2023-09-30T03:56:07;4.10;;;2.70;;
1613;SDS011;800;48.824;9.346;2023-09-30T03:58:33;9.80;;;3.37;;
1613;SDS011;800;48.824;9.346;2023-09-30T04:00:59;3.20;;;2.70;;
1613;SDS011;800;48.824;9.346;2023-09-30T04:03:29;6.40;;;3.30;;
1613;SDS011;800;48.824;9.346;2023-09-30T04:05:55;6.50;;;3.43;;
1613;SDS011;800;48.824;9.346;2023-09-30T04:08:21;6.87;;;4.13;;
1613;SDS011;800;48.824;9.346;2023-09-30T04:10:47;6.23;;;4.00;;
1613;SDS011;800;48.824;9.346;2023-09-30T04:13:13;4.07;;;3.40;;
1613;SDS011;800;48.824;9.346;2023-09-30T04:15:38;4.40;;;3.47;;
1613;SDS011;800;48.824;9.346;2023-09-30T04:18:04;4.83;;;3.97;;
1613;SDS011;800;48.824;9.346;2023-09-30T04:20:30;5.10;;;3.30;;
1613;SDS011;800;48.824;9.346;2023-09-30T04:22:56;4.67;;;3.20;;
1613;SDS011;800;48.824;9.346;2023-09-30T04:25:23;4.30;;;3.27;;
1613;SDS011;800;48.824;9.346;2023-09-30T04:27:49;6.20;;;3.83;;
1613;SDS011;800;48.824;9.346;2023-09-30T04:30:16;4.43;;;3.20;;
1613;SDS011;800;48.824;9.346;2023-09-30T04:32:42;4.23;;;3.20;;
1613;SDS011;800;48.824;9.346;2023-09-30T04:35:08;4.10;;;3.40;;
1613;SDS011;800;48.824;9.346;2023-09-30T04:37:34;3.90;;;3.50;;
1613;SDS011;800;48.824;9.346;2023-09-30T04:40:02;9.90;;;4.90;;
1613;SDS011;800;48.824;9.346;2023-09-30T04:42:43;10.57;;;3.90;;
1613;SDS011;800;48.824;9.346;2023-09-30T04:45:09;4.83;;;3.97;;
1613;SDS011;800;48.824;9.346;2023-09-30T04:47:36;5.63;;;4.60;;
1613;SDS011;800;48.824;9.346;2023-09-30T04:50:04;4.57;;;4.17;;
1613;SDS011;800;48.824;9.346;2023-09-30T04:52:32;8.07;;;4.33;;
1613;SDS011;800;48.824;9.346;2023-09-30T04:54:58;4.90;;;4.40;;
1613;SDS011;800;48.824;9.346;2023-09-30T04:57:25;4.70;;;4.20;;
1613;SDS011;800;48.824;9.346;2023-09-30T04:59:51;4.50;;;3.80;;
1613;SDS011;800;48.824;9.346;2023-09-30T05:02:16;6.00;;;3.70;;
1613;SDS011;800;48.824;9.346;2023-09-30T05:04:42;4.10;;;3.70;;
1613;SDS011;800;48.824;9.346;2023-09-30T05:07:08;4.23;;;3.80;;
1613;SDS011;800;48.824;9.346;2023-09-30T05:09:33;5.60;;;4.27;;
1613;SDS011;800;48.824;9.346;2023-09-30T05:11:59;4.23;;;3.77;;
1613;SDS011;800;48.824;9.346;2023-09-30T05:14:25;4.13;;;3.73;;
1613;SDS011;800;48.824;9.346;2023-09-30T05:16:52;4.20;;;3.80;;
1613;SDS011;800;48.824;9.346;2023-09-30T05:19:18;4.30;;;3.33;;
1613;SDS011;800;48.824;9.346;2023-09-30T05:21:45;4.97;;;3.97;;
1613;SDS011;800;48.824;9.346;2023-09-30T05:24:12;5.20;;;3.53;;
1613;SDS011;800;48.824;9.346;2023-09-30T05:26:37;9.50;;;3.60;;
1613;SDS011;800;48.824;9.346;2023-09-30T05:29:03;4.50;;;3.40;;
1613;SDS011;800;48.824;9.346;2023-09-30T05:31:29;4.00;;;3.60;;
1613;SDS011;800;48.824;9.346;2023-09-30T05:33:55;4.83;;;3.67;;
1613;SDS011;800;48.824;9.346;2023-09-30T05:36:21;3.80;;;3.47;;
1613;SDS011;800;48.824;9.346;2023-09-30T05:38:47;7.47;;;3.77;;
1613;SDS011;800;48.824;9.346;2023-09-30T05:41:16;9.70;;;4.53;;
1613;SDS011;800;48.824;9.346;2023-09-30T05:43:42;5.20;;;3.80;;
1613;SDS011;800;48.824;9.346;2023-09-30T05:46:09;5.37;;;4.10;;
1613;SDS011;800;48.824;9.346;2023-09-30T05:48:34;5.30;;;4.80;;
1613;SDS011;800;48.824;9.346;2023-09-30T05:51:01;5.47;;;3.97;;
1613;SDS011;800;48.824;9.346;2023-09-30T05:53:30;5.07;;;4.50;;
1613;SDS011;800;48.824;9.346;2023-09-30T05:55:57;7.90;;;3.90;;
1613;SDS011;800;48.824;9.346;2023-09-30T05:58:24;4.03;;;3.67;;
1613;SDS011;800;48.824;9.346;2023-09-30T06:00:51;3.53;;;3.20;;
1613;SDS011;800;48.824;9.346;2023-09-30T06:03:18;7.87;;;3.60;;
1613;SDS011;800;48.824;9.346;2023-09-30T06:05:43;5.80;;;4.10;;
1613;SDS011;800;48.824;9.346;2023-09-30T06:08:09;5.43;;;3.83;;
1613;SDS011;800;48.824;9.346;2023-09-30T06:10:39;5.40;;;3.77;;
1613;SDS011;800;48.824;9.346;2023-09-30T06:13:07;6.13;;;3.90;;
1613;SDS011;800;48.824;9.346;2023-09-30T06:15:33;6.40;;;3.23;;
1613;SDS011;800;48.824;9.346;2023-09-30T06:18:01;5.43;;;4.07;;
1613;SDS011;800;48.824;9.346;2023-09-30T06:20:29;6.67;;;4.50;;
1613;SDS011;800;48.824;9.346;2023-09-30T06:22:55;4.57;;;4.17;;
1613;SDS011;800;48.824;9.346;2023-09-30T06:25:21;3.60;;;3.30;;
1613;SDS011;800;48.824;9.346;2023-09-30T06:27:49;6.40;;;4.80;;
1613;SDS011;800;48.824;9.346;2023-09-30T06:30:15;6.33;;;3.97;;
1613;SDS011;800;48.824;9.346;2023-09-30T06:32:42;5.43;;;4.17;;
1613;SDS011;800;48.824;9.346;2023-09-30T06:35:08;4.80;;;4.10;;
1613;SDS011;800;48.824;9.346;2023-09-30T06:37:37;10.20;;;4.37;;
1613;SDS011;800;48.824;9.346;2023-09-30T06:40:07;7.40;;;4.10;;
1613;SDS011;800;48.824;9.346;2023-09-30T06:42:34;8.00;;;4.13;;
1613;SDS011;800;48.824;9.346;2023-09-30T06:45:01;5.43;;;4.00;;
1613;SDS011;800;48.824;9.346;2023-09-30T06:47:31;6.63;;;3.87;;
1613;SDS011;800;48.824;9.346;2023-09-30T06:49:58;4.50;;;4.00;;
1613;SDS011;800;48.824;9.346;2023-09-30T06:52:36;5.83;;;3.73;;
1613;SDS011;800;48.824;9.346;2023-09-30T06:55:03;5.27;;;4.13;;
1613;SDS011;800;48.824;9.346;2023-09-30T06:57:29;7.93;;;4.20;;
1613;SDS011;800;48.824;9.346;2023-09-30T07:00:11;7.53;;;3.97;;
1613;SDS011;800;48.824;9.346;2023-09-30T07:02:38;6.23;;;4.83;;
1613;SDS011;800;48.824;9.346;2023-09-30T07:05:07;5.37;;;4.30;;
1613;SDS011;800;48.824;9.346;2023-09-30T07:07:34;4.93;;;3.93;;
1613;SDS011;800;48.824;9.346;2023-09-30T07:10:00;6.73;;;4.07;;
1613;SDS011;800;48.824;9.346;2023-09-30T07:12:25;6.07;;;3.90;;
1613;SDS011;800;48.824;9.346;2023-09-30T07:14:51;7.20;;;4.10;;
1613;SDS011;800;48.824;9.346;2023-09-30T07:17:17;4.50;;;3.50;;
1613;SDS011;800;48.824;9.346;2023-09-30T07:19:43;5.20;;;4.17;;
1613;SDS011;800;48.824;9.346;2023-09-30T07:22:09;6.77;;;4.30;;
1613;SDS011;800;48.824;9.346;2023-09-30T07:24:34;5.10;;;4.57;;
1613;SDS011;800;48.824;9.346;2023-09-30T07:27:00;5.50;;;4.67;;
1613;SDS011;800;48.824;9.346;2023-09-30T07:29:25;4.73;;;4.07;;
1613;SDS011;800;48.824;9.346;2023-09-30T07:31:51;7.00;;;4.50;;
1613;SDS011;800;48.824;9.346;2023-09-30T07:34:16;7.40;;;4.80;;
1613;SDS011;800;48.824;9.346;2023-09-30T07:36:42;6.07;;;4.60;;
1613;SDS011;800;48.824;9.346;2023-09-30T07:39:08;6.43;;;4.73;;
1613;SDS011;800;48.824;9.346;2023-09-30T07:41:36;6.80;;;4.80;;
1613;SDS011;800;48.824;9.346;2023-09-30T07:44:02;6.97;;;4.17;;
1613;SDS011;800;48.824;9.346;2023-09-30T07:46:27;8.83;;;4.23;;
1613;SDS011;800;48.824;9.346;2023-09-30T07:48:53;8.87;;;4.10;;
1613;SDS011;800;48.824;9.346;2023-09-30T07:51:20;12.03;;;4.63;;
1613;SDS011;800;48.824;9.346;2023-09-30T07:53:46;6.40;;;4.60;;
1613;SDS011;800;48.824;9.346;2023-09-30T07:56:11;9.57;;;4.70;;
1613;SDS011;800;48.824;9.346;2023-09-30T07:58:38;5.87;;;4.53;;
1613;SDS011;800;48.824;9.346;2023-09-30T08:01:03;6.53;;;5.30;;
1613;SDS011;800;48.824;9.346;2023-09-30T08:03:29;14.27;;;5.43;;
1613;SDS011;800;48.824;9.346;2023-09-30T08:05:55;7.37;;;4.90;;
1613;SDS011;800;48.824;9.346;2023-09-30T08:08:21;7.03;;;4.73;;
1613;SDS011;800;48.824;9.346;2023-09-30T08:10:49;8.27;;;4.70;;
1613;SDS011;800;48.824;9.346;2023-09-30T08:13:15;10.20;;;5.50;;
1613;SDS011;800;48.824;9.346;2023-09-30T08:15:42;6.70;;;5.27;;
1613;SDS011;800;48.824;9.346;2023-09-30T08:18:08;6.77;;;4.90;;
1613;SDS011;800;48.824;9.346;2023-09-30T08:20:33;9.20;;;4.90;;
1613;SDS011;800;48.824;9.346;2023-09-30T08:22:59;7.10;;;4.70;;
1613;SDS011;800;48.824;9.346;2023-09-30T08:25:25;5.40;;;4.00;;
1613;SDS011;800;48.824;9.346;2023-09-30T08:27:51;10.27;;;5.33;;
1613;SDS011;800;48.824;9.346;2023-09-30T08:30:17;7.23;;;5.17;;
1613;SDS011;800;48.824;9.346;2023-09-30T08:32:43;7.33;;;4.37;;
1613;SDS011;800;48.824;9.346;2023-09-30T08:35:09;9.60;;;5.40;;
1613;SDS011;800;48.824;9.346;2023-09-30T08:37:34;4.97;;;4.53;;
1613;SDS011;800;48.824;9.346;2023-09-30T08:40:00;6.30;;;4.00;;
1613;SDS011;800;48.824;9.346;2023-09-30T08:42:26;5.03;;;4.40;;
1613;SDS011;800;48.824;9.346;2023-09-30T08:44:57;4.53;;;4.00;;
1613;SDS011;800;48.824;9.346;2023-09-30T08:47:25;9.67;;;4.37;;
1613;SDS011;800;48.824;9.346;2023-09-30T08:49:52;6.40;;;4.40;;
1613;SDS011;800;48.824;9.346;2023-09-30T08:52:21;6.50;;;3.90;;
1613;SDS011;800;48.824;9.346;2023-09-30T08:54:47;5.33;;;4.70;;
1613;SDS011;800;48.824;9.346;2023-09-30T08:57:13;6.90;;;4.67;;
1613;SDS011;800;48.824;9.346;2023-09-30T08:59:43;8.07;;;5.07;;
1613;SDS011;800;48.824;9.346;2023-09-30T09:02:11;11.03;;;4.80;;
1613;SDS011;800;48.824;9.346;2023-09-30T09:04:37;7.23;;;4.67;;
1613;SDS011;800;48.824;9.346;2023-09-30T09:07:02;4.07;;;3.57;;
1613;SDS011;800;48.824;9.346;2023-09-30T09:09:28;6.60;;;3.97;;
1613;SDS011;800;48.824;9.346;2023-09-30T09:11:54;5.27;;;4.30;;
1613;SDS011;800;48.824;9.346;2023-09-30T09:14:19;7.37;;;3.87;;
1613;SDS011;800;48.824;9.346;2023-09-30T09:17:02;7.53;;;5.00;;
1613;SDS011;800;48.824;9.346;2023-09-30T09:19:29;6.53;;;4.37;;
1613;SDS011;800;48.824;9.346;2023-09-30T09:21:59;7.33;;;4.70;;
1613;SDS011;800;48.824;9.346;2023-09-30T09:24:29;6.00;;;4.30;;
1613;SDS011;800;48.824;9.346;2023-09-30T09:27:16;6.37;;;4.37;;
1613;SDS011;800;48.824;9.346;2023-09-30T09:29:42;4.23;;;3.83;;
1613;SDS011;800;48.824;9.346;2023-09-30T09:32:10;4.93;;;4.40;;
1613;SDS011;800;48.824;9.346;2023-09-30T09:34:38;5.40;;;4.00;;
1613;SDS011;800;48.824;9.346;2023-09-30T09:37:17;7.03;;;4.30;;
1613;SDS011;800;48.824;9.346;2023-09-30T09:39:57;6.50;;;4.50;;
1613;SDS011;800;48.824;9.346;2023-09-30T09:42:26;8.07;;;4.17;;
1613;SDS011;800;48.824;9.346;2023-09-30T09:45:00;8.17;;;3.90;;
1613;SDS011;800;48.824;9.346;2023-09-30T09:47:31;5.77;;;3.90;;
1613;SDS011;800;48.824;9.346;2023-09-30T09:49:57;6.40;;;4.87;;
1613;SDS011;800;48.824;9.346;2023-09-30T09:52:24;7.70;;;4.10;;
1613;SDS011;800;48.824;9.346;2023-09-30T09:54:50;4.80;;;3.77;;
1613;SDS011;800;48.824;9.346;2023-09-30T09:57:17;4.97;;;3.80;;
1613;SDS011;800;48.824;9.346;2023-09-30T09:59:44;4.83;;;4.03;;
1613;SDS011;800;48.824;9.346;2023-09-30T10:02:15;3.83;;;3.40;;
1613;SDS011;800;48.824;9.346;2023-09-30T10:04:42;6.80;;;4.30;;
1613;SDS011;800;48.824;9.346;2023-09-30T10:07:09;6.90;;;4.70;;
1613;SDS011;800;48.824;9.346;2023-09-30T10:09:39;5.07;;;4.03;;
1613;SDS011;800;48.824;9.346;2023-09-30T10:12:10;4.40;;;3.37;;
1613;SDS011;800;48.824;9.346;2023-09-30T10:14:38;7.23;;;4.37;;
1613;SDS011;800;48.824;9.346;2023-09-30T10:17:03;7.07;;;4.13;;
1613;SDS011;800;48.824;9.346;2023-09-30T10:19:29;5.30;;;3.30;;
1613;SDS011;800;48.824;9.346;2023-09-30T10:24:41;6.20;;;4.53;;
1613;SDS011;800;48.824;9.346;2023-09-30T10:30:14;6.60;;;4.77;;
1613;SDS011;800;48.824;9.346;2023-09-30T10:35:41;4.93;;;4.43;;
1613;SDS011;800;48.824;9.346;2023-09-30T10:40:51;5.47;;;3.90;;
1613;SDS011;800;48.824;9.346;2023-09-30T10:43:30;6.57;;;4.63;;
1613;SDS011;800;48.824;9.346;2023-09-30T10:46:50;6.97;;;4.20;;
1613;SDS011;800;48.824;9.346;2023-09-30T10:48:51;6.80;;;4.13;;
1613;SDS011;800;48.824;9.346;2023-09-30T10:51:17;5.53;;;4.33;;
1613;SDS011;800;48.824;9.346;2023-09-30T10:53:47;4.50;;;3.73;;
1613;SDS011;800;48.824;9.346;2023-09-30T10:56:16;5.27;;;3.90;;
1613;SDS011;800;48.824;9.346;2023-09-30T11:01:09;5.77;;;4.40;;
1613;SDS011;800;48.824;9.346;2023-09-30T11:03:35;5.57;;;4.60;;
1613;SDS011;800;48.824;9.346;2023-09-30T11:06:01;5.83;;;3.87;;
1613;SDS011;800;48.824;9.346;2023-09-30T11:08:29;6.03;;;4.17;;
1613;SDS011;800;48.824;9.346;2023-09-30T11:10:55;7.70;;;4.43;;
1613;SDS011;800;48.824;9.346;2023-09-30T11:13:21;6.37;;;4.20;;
1613;SDS011;800;48.824;9.346;2023-09-30T11:15:47;7.27;;;4.83;;
1613;SDS011;800;48.824;9.346;2023-09-30T11:18:24;8.27;;;4.40;;
1613;SDS011;800;48.824;9.346;2023-09-30T11:20:50;11.10;;;4.63;;
1613;SDS011;800;48.824;9.346;2023-09-30T11:23:35;6.53;;;5.03;;
1613;SDS011;800;48.824;9.346;2023-09-30T11:26:02;6.23;;;4.33;;
1613;SDS011;800;48.824;9.346;2023-09-30T11:28:36;6.33;;;4.93;;
1613;SDS011;800;48.824;9.346;2023-09-30T11:31:10;6.40;;;5.00;;
1613;SDS011;800;48.824;9.346;2023-09-30T11:33:52;8.93;;;5.10;;
1613;SDS011;800;48.824;9.346;2023-09-30T11:36:20;8.03;;;4.70;;
1613;SDS011;800;48.824;9.346;2023-09-30T11:38:47;6.70;;;4.17;;
1613;SDS011;800;48.824;9.346;2023-09-30T11:41:14;6.70;;;5.23;;
1613;SDS011;800;48.824;9.346;2023-09-30T11:43:57;6.67;;;4.67;;
1613;SDS011;800;48.824;9.346;2023-09-30T11:46:27;5.20;;;4.30;;
1613;SDS011;800;48.824;9.346;2023-09-30T11:51:24;6.10;;;5.37;;
1613;SDS011;800;48.824;9.346;2023-09-30T11:53:51;6.07;;;4.60;;
1613;SDS011;800;48.824;9.346;2023-09-30T11:56:23;7.73;;;5.43;;
1613;SDS011;800;48.824;9.346;2023-09-30T11:58:54;7.27;;;5.13;;
1613;SDS011;800;48.824;9.346;2023-09-30T12:01:20;7.43;;;4.67;;
1613;SDS011;800;48.824;9.346;2023-09-30T12:03:47;8.73;;;5.10;;
1613;SDS011;800;48.824;9.346;2023-09-30T12:06:13;7.10;;;4.80;;
1613;SDS011;800;48.824;9.346;2023-09-30T12:08:41;7.10;;;5.27;;
1613;SDS011;800;48.824;9.346;2023-09-30T12:11:07;7.10;;;5.10;;
1613;SDS011;800;48.824;9.346;2023-09-30T12:13:32;6.90;;;4.60;;
1613;SDS011;800;48.824;9.346;2023-09-30T12:15:58;6.10;;;4.73;;
1613;SDS011;800;48.824;9.346;2023-09-30T12:18:23;7.07;;;5.43;;
1613;SDS011;800;48.824;9.346;2023-09-30T12:20:50;8.03;;;4.70;;
1613;SDS011;800;48.824;9.346;2023-09-30T12:23:18;7.60;;;4.90;;
1613;SDS011;800;48.824;9.346;2023-09-30T12:25:45;6.27;;;4.47;;
1613;SDS011;800;48.824;9.346;2023-09-30T12:28:11;5.60;;;4.13;;
1613;SDS011;800;48.824;9.346;2023-09-30T12:30:38;7.73;;;5.00;;
1613;SDS011;800;48.824;9.346;2023-09-30T12:33:05;7.47;;;5.30;;
1613;SDS011;800;48.824;9.346;2023-09-30T12:35:31;7.23;;;5.57;;
1613;SDS011;800;48.824;9.346;2023-09-30T12:37:58;7.30;;;4.73;;
1613;SDS011;800;48.824;9.346;2023-09-30T12:40:23;7.17;;;4.77;;
1613;SDS011;800;48.824;9.346;2023-09-30T12:42:49;9.17;;;4.97;;
1613;SDS011;800;48.824;9.346;2023-09-30T12:45:15;9.13;;;5.43;;
1613;SDS011;800;48.824;9.346;2023-09-30T12:47:41;6.63;;;4.90;;
1613;SDS011;800;48.824;9.346;2023-09-30T12:50:07;7.03;;;5.20;;
1613;SDS011;800;48.824;9.346;2023-09-30T12:52:36;8.63;;;5.00;;
1613;SDS011;800;48.824;9.346;2023-09-30T12:55:03;7.77;;;5.90;;
1613;SDS011;800;48.824;9.346;2023-09-30T12:57:29;7.67;;;5.40;;
1613;SDS011;800;48.824;9.346;2023-09-30T12:59:55;6.43;;;5.03;;
1613;SDS011;800;48.824;9.346;2023-09-30T13:02:21;7.50;;;5.60;;
1613;SDS011;800;48.824;9.346;2023-09-30T13:04:47;7.60;;;5.10;;
1613;SDS011;800;48.824;9.346;2023-09-30T13:07:13;7.53;;;4.70;;
1613;SDS011;800;48.824;9.346;2023-09-30T13:09:39;7.70;;;5.13;;
1613;SDS011;800;48.824;9.346;2023-09-30T13:12:05;7.83;;;5.10;;
1613;SDS011;800;48.824;9.346;2023-09-30T13:14:31;8.60;;;5.43;;
1613;SDS011;800;48.824;9.346;2023-09-30T13:16:57;8.53;;;4.83;;
1613;SDS011;800;48.824;9.346;2023-09-30T13:19:23;7.20;;;5.30;;
1613;SDS011;800;48.824;9.346;2023-09-30T13:21:49;6.40;;;5.00;;
1613;SDS011;800;48.824;9.346;2023-09-30T13:24:15;7.77;;;4.90;;
1613;SDS011;800;48.824;9.346;2023-09-30T13:26:41;6.93;;;5.43;;
1613;SDS011;800;48.824;9.346;2023-09-30T13:29:07;8.00;;;4.90;;
1613;SDS011;800;48.824;9.346;2023-09-30T13:31:35;8.60;;;5.80;;
1613;SDS011;800;48.824;9.346;2023-09-30T13:34:02;6.87;;;4.53;;
1613;SDS011;800;48.824;9.346;2023-09-30T13:36:29;7.63;;;5.10;;
1613;SDS011;800;48.824;9.346;2023-09-30T13:38:55;8.50;;;5.37;;
1613;SDS011;800;48.824;9.346;2023-09-30T13:41:20;9.30;;;6.67;;
1613;SDS011;800;48.824;9.346;2023-09-30T13:43:46;9.70;;;6.30;;
1613;SDS011;800;48.824;9.346;2023-09-30T13:46:12;8.80;;;5.13;;
1613;SDS011;800;48.824;9.346;2023-09-30T13:48:38;9.03;;;5.37;;
1613;SDS011;800;48.824;9.346;2023-09-30T13:51:04;12.43;;;5.83;;
1613;SDS011;800;48.824;9.346;2023-09-30T13:53:31;8.20;;;5.40;;
1613;SDS011;800;48.824;9.346;2023-09-30T13:55:57;9.60;;;5.47;;
1613;SDS011;800;48.824;9.346;2023-09-30T13:58:22;8.63;;;5.30;;
1613;SDS011;800;48.824;9.346;2023-09-30T14:00:49;6.70;;;4.70;;
1613;SDS011;800;48.824;9.346;2023-09-30T14:03:19;6.90;;;5.23;;
1613;SDS011;800;48.824;9.346;2023-09-30T14:05:45;9.70;;;4.90;;
1613;SDS011;800;48.824;9.346;2023-09-30T14:08:11;9.20;;;5.63;;
1613;SDS011;800;48.824;9.346;2023-09-30T14:10:37;8.03;;;4.57;;
1613;SDS011;800;48.824;9.346;2023-09-30T14:13:03;6.97;;;4.90;;
1613;SDS011;800;48.824;9.346;2023-09-30T14:15:28;8.37;;;5.67;;
1613;SDS011;800;48.824;9.346;2023-09-30T14:17:56;8.77;;;4.77;;
1613;SDS011;800;48.824;9.346;2023-09-30T14:20:23;6.97;;;4.87;;
1613;SDS011;800;48.824;9.346;2023-09-30T14:22:50;6.77;;;4.80;;
1613;SDS011;800;48.824;9.346;2023-09-30T14:25:16;6.90;;;4.97;;
1613;SDS011;800;48.824;9.346;2023-09-30T14:27:42;7.90;;;4.67;;
1613;SDS011;800;48.824;9.346;2023-09-30T14:30:08;7.83;;;5.40;;
1613;SDS011;800;48.824;9.346;2023-09-30T14:32:34;7.60;;;5.27;;
1613;SDS011;800;48.824;9.346;2023-09-30T14:35:00;6.87;;;4.63;;
1613;SDS011;800;48.824;9.346;2023-09-30T14:37:26;7.50;;;4.70;;
1613;SDS011;800;48.824;9.346;2023-09-30T14:39:52;7.57;;;5.20;;
1613;SDS011;800;48.824;9.346;2023-09-30T14:42:17;6.63;;;4.97;;
1613;SDS011;800;48.824;9.346;2023-09-30T14:44:43;8.80;;;5.23;;
1613;SDS011;800;48.824;9.346;2023-09-30T14:47:08;8.90;;;5.33;;
1613;SDS011;800;48.824;9.346;2023-09-30T14:49:34;7.30;;;4.97;;
1613;SDS011;800;48.824;9.346;2023-09-30T14:52:00;7.17;;;5.27;;
1613;SDS011;800;48.824;9.346;2023-09-30T14:54:26;7.60;;;4.80;;
1613;SDS011;800;48.824;9.346;2023-09-30T14:56:51;6.90;;;4.60;;
1613;SDS011;800;48.824;9.346;2023-09-30T14:59:17;9.67;;;5.10;;
1613;SDS011;800;48.824;9.346;2023-09-30T15:01:43;8.80;;;5.90;;
1613;SDS011;800;48.824;9.346;2023-09-30T15:04:08;7.47;;;4.60;;
1613;SDS011;800;48.824;9.346;2023-09-30T15:06:34;8.77;;;4.70;;
1613;SDS011;800;48.824;9.346;2023-09-30T15:09:02;9.20;;;5.40;;
1613;SDS011;800;48.824;9.346;2023-09-30T15:11:29;8.27;;;5.40;;
1613;SDS011;800;48.824;9.346;2023-09-30T15:13:55;7.53;;;5.17;;
1613;SDS011;800;48.824;9.346;2023-09-30T15:16:21;7.77;;;4.73;;
1613;SDS011;800;48.824;9.346;2023-09-30T15:18:48;7.43;;;4.80;;
1613;SDS011;800;48.824;9.346;2023-09-30T15:21:14;6.43;;;4.73;;
1613;SDS011;800;48.824;9.346;2023-09-30T15:23:41;7.73;;;5.40;;
1613;SDS011;800;48.824;9.346;2023-09-30T15:26:08;9.00;;;4.70;;
1613;SDS011;800;48.824;9.346;2023-09-30T15:28:34;7.20;;;4.83;;
1613;SDS011;800;48.824;9.346;2023-09-30T15:30:59;10.33;;;6.20;;
1613;SDS011;800;48.824;9.346;2023-09-30T15:33:28;10.40;;;4.60;;
1613;SDS011;800;48.824;9.346;2023-09-30T15:35:54;8.83;;;5.40;;
1613;SDS011;800;48.824;9.346;2023-09-30T15:38:20;7.67;;;4.90;;
1613;SDS011;800;48.824;9.346;2023-09-30T15:40:55;7.47;;;5.20;;
1613;SDS011;800;48.824;9.346;2023-09-30T15:43:26;9.73;;;5.40;;
1613;SDS011;800;48.824;9.346;2023-09-30T15:45:52;7.10;;;4.87;;